Time;durP1;ratioP1;P1;durP2;ratioP2;P2;SDS_P1;SDS_P2;PMS_P1;PMS_P2;Temp;Humidity;BMP_temperature;BMP_pressure;BME280_temperature;BME280_humidity;BME280_pressure;Samples;Min_cycle;Max_cycle;Signal;HPM_P1;HPM_P2
2021/01/23 00:00:01;;;;;;;14.48;7.22;;;;;;;;;;5053234;28;20025;-81
2021/01/23 00:02:27;;;;;;;15.38;7.47;;;;;;;;;;5053376;28;20501;-81
2021/01/23 00:04:53;;;;;;;13.23;7.30;;;;;;;;;;5053268;28;20727;-77
2021/01/23 00:07:37;;;;;;;17.10;8.35;;;;;;;;;;5053289;28;20025;-77
2021/01/23 00:10:04;;;;;;;12.15;6.95;;;;;;;;;;5052292;28;20484;-78
2021/01/23 00:12:30;;;;;;;14.60;7.55;;;;;;;;;;5035921;28;20029;-70
2021/01/23 00:14:56;;;;;;;12.95;7.63;;;;;;;;;;5031202;28;20082;-72
2021/01/23 00:17:22;;;;;;;12.95;6.97;;;;;;;;;;5033261;28;20057;-72
2021/01/23 00:19:48;;;;;;;15.90;7.50;;;;;;;;;;5033011;28;20040;-71
2021/01/23 00:22:14;;;;;;;15.05;7.35;;;;;;;;;;5033076;28;20022;-75
2021/01/23 00:24:40;;;;;;;12.27;7.07;;;;;;;;;;5032803;28;20013;-74
2021/01/23 00:27:06;;;;;;;13.57;7.13;;;;;;;;;;5031686;28;20018;-75
2021/01/23 00:29:32;;;;;;;14.88;7.32;;;;;;;;;;5033316;28;20156;-75
2021/01/23 00:31:58;;;;;;;11.93;6.70;;;;;;;;;;5031576;28;20029;-74
2021/01/23 00:34:24;;;;;;;13.52;7.43;;;;;;;;;;5034999;28;20553;-75
2021/01/23 00:36:51;;;;;;;11.98;6.90;;;;;;;;;;5052680;28;20025;-77
2021/01/23 00:39:17;;;;;;;15.75;7.28;;;;;;;;;;5052625;28;20029;-78
2021/01/23 00:41:43;;;;;;;13.32;7.25;;;;;;;;;;5051164;28;20025;-76
2021/01/23 00:44:09;;;;;;;10.35;6.30;;;;;;;;;;5051251;28;20028;-78
2021/01/23 00:46:35;;;;;;;13.00;7.05;;;;;;;;;;5050227;28;20139;-76
2021/01/23 00:49:01;;;;;;;14.70;6.78;;;;;;;;;;5051034;28;20028;-76
2021/01/23 00:51:27;;;;;;;13.52;7.13;;;;;;;;;;5052328;28;20403;-80
2021/01/23 00:53:53;;;;;;;11.45;6.80;;;;;;;;;;5051083;28;20544;-87
2021/01/23 00:56:19;;;;;;;11.75;6.78;;;;;;;;;;5053590;28;20396;-84
2021/01/23 00:58:45;;;;;;;13.68;7.18;;;;;;;;;;5052351;28;20423;-78
2021/01/23 01:01:11;;;;;;;12.40;7.00;;;;;;;;;;5052261;28;20465;-79
2021/01/23 01:03:37;;;;;;;15.27;6.45;;;;;;;;;;5033326;28;20022;-79
2021/01/23 01:06:03;;;;;;;12.15;6.75;;;;;;;;;;5031196;28;20034;-83
2021/01/23 01:08:29;;;;;;;11.77;6.60;;;;;;;;;;5030805;28;20029;-75
2021/01/23 01:10:55;;;;;;;12.68;6.15;;;;;;;;;;5032358;28;20037;-75
2021/01/23 01:13:22;;;;;;;12.27;6.45;;;;;;;;;;5030940;28;20021;-81
2021/01/23 01:15:49;;;;;;;14.75;6.35;;;;;;;;;;5045377;28;20116;-84
2021/01/23 01:18:15;;;;;;;13.00;6.25;;;;;;;;;;5051898;28;20029;-72
2021/01/23 01:20:41;;;;;;;16.60;6.82;;;;;;;;;;5032842;28;20029;-72
2021/01/23 01:23:07;;;;;;;10.93;5.95;;;;;;;;;;5032035;28;20021;-71
2021/01/23 01:25:33;;;;;;;11.68;5.97;;;;;;;;;;5031798;28;20056;-72
2021/01/23 01:27:59;;;;;;;10.20;5.63;;;;;;;;;;5030635;28;20021;-71
2021/01/23 01:30:25;;;;;;;13.48;6.70;;;;;;;;;;5032050;28;20570;-71
2021/01/23 01:32:51;;;;;;;12.43;7.20;;;;;;;;;;5031770;28;20026;-72
2021/01/23 01:35:17;;;;;;;11.07;6.60;;;;;;;;;;5042450;28;20120;-76
2021/01/23 01:37:44;;;;;;;11.68;6.38;;;;;;;;;;5050693;28;20021;-80
2021/01/23 01:40:10;;;;;;;17.42;6.63;;;;;;;;;;5049805;28;20104;-78
2021/01/23 01:42:36;;;;;;;12.35;6.22;;;;;;;;;;5051040;28;20071;-80
2021/01/23 01:45:03;;;;;;;11.15;5.93;;;;;;;;;;5051586;28;20092;-80
2021/01/23 01:47:29;;;;;;;15.25;6.18;;;;;;;;;;5051348;28;20407;-80
2021/01/23 01:49:58;;;;;;;11.55;6.70;;;;;;;;;;5051511;28;20057;-80
2021/01/23 01:52:24;;;;;;;11.88;5.75;;;;;;;;;;5051144;28;20025;-80
2021/01/23 01:54:51;;;;;;;11.35;6.25;;;;;;;;;;5051194;28;20033;-76
2021/01/23 01:57:21;;;;;;;12.98;6.47;;;;;;;;;;5051096;28;20017;-80
2021/01/23 01:59:48;;;;;;;11.10;6.25;;;;;;;;;;5051096;28;20108;-76
2021/01/23 02:02:33;;;;;;;14.88;6.72;;;;;;;;;;5051332;28;20017;-80
2021/01/23 02:05:18;;;;;;;12.05;6.30;;;;;;;;;;5051262;28;20033;-76
2021/01/23 02:07:47;;;;;;;11.32;6.35;;;;;;;;;;5051082;28;20033;-81
2021/01/23 02:10:27;;;;;;;11.57;6.45;;;;;;;;;;5044231;28;20075;-79
2021/01/23 02:12:53;;;;;;;11.43;6.13;;;;;;;;;;5031238;28;20022;-78
2021/01/23 02:15:21;;;;;;;11.27;6.22;;;;;;;;;;5031218;28;20036;-78
2021/01/23 02:17:48;;;;;;;10.55;6.20;;;;;;;;;;5030935;28;20207;-78
2021/01/23 02:20:14;;;;;;;10.98;6.10;;;;;;;;;;5031192;28;20029;-78
2021/01/23 02:22:59;;;;;;;11.15;6.18;;;;;;;;;;5031326;28;20021;-80
2021/01/23 02:25:26;;;;;;;11.45;6.20;;;;;;;;;;5044568;28;20431;-81
2021/01/23 02:28:12;;;;;;;11.57;5.75;;;;;;;;;;5049708;28;20036;-80
2021/01/23 02:31:04;;;;;;;11.77;5.85;;;;;;;;;;5051791;28;20025;-80
2021/01/23 02:33:31;;;;;;;11.20;6.20;;;;;;;;;;5049401;28;20090;-73
2021/01/23 02:35:58;;;;;;;11.52;5.13;;;;;;;;;;5034297;28;20030;-75
2021/01/23 02:38:25;;;;;;;11.20;5.90;;;;;;;;;;5034501;28;20021;-80
2021/01/23 02:40:52;;;;;;;11.57;6.00;;;;;;;;;;5035054;28;20021;-79
2021/01/23 02:43:21;;;;;;;11.13;5.93;;;;;;;;;;5035034;28;20075;-80
2021/01/23 02:45:50;;;;;;;8.35;5.35;;;;;;;;;;5054114;28;20143;-79
2021/01/23 02:48:17;;;;;;;11.93;5.80;;;;;;;;;;5054752;28;20017;-80
2021/01/23 02:50:43;;;;;;;11.23;6.10;;;;;;;;;;5053561;28;20024;-81
2021/01/23 02:53:18;;;;;;;10.82;5.57;;;;;;;;;;5054671;28;20025;-76
2021/01/23 02:55:45;;;;;;;10.65;5.95;;;;;;;;;;5054694;28;20057;-80
2021/01/23 02:58:12;;;;;;;9.65;5.38;;;;;;;;;;5054889;28;20025;-80
2021/01/23 03:00:38;;;;;;;11.15;6.03;;;;;;;;;;5051226;28;20103;-77
2021/01/23 03:03:04;;;;;;;10.82;5.90;;;;;;;;;;5034437;28;20024;-80
2021/01/23 03:05:32;;;;;;;9.52;5.63;;;;;;;;;;5033033;28;20120;-76
2021/01/23 03:07:58;;;;;;;8.90;5.60;;;;;;;;;;5034590;28;20168;-79
2021/01/23 03:10:36;;;;;;;10.55;5.57;;;;;;;;;;5034482;28;20017;-80
2021/01/23 03:13:03;;;;;;;12.50;6.15;;;;;;;;;;5034457;28;20072;-78
2021/01/23 03:15:29;;;;;;;11.00;5.78;;;;;;;;;;5034514;28;20065;-80
2021/01/23 03:17:55;;;;;;;11.50;5.85;;;;;;;;;;5033690;28;20033;-81
2021/01/23 03:20:21;;;;;;;11.95;5.72;;;;;;;;;;5034450;28;20033;-80
2021/01/23 03:22:47;;;;;;;11.27;5.28;;;;;;;;;;5034265;28;20028;-78
2021/01/23 03:25:13;;;;;;;9.98;5.90;;;;;;;;;;5034420;28;20025;-78
2021/01/23 03:27:39;;;;;;;10.95;5.50;;;;;;;;;;5033999;28;20053;-80
2021/01/23 03:30:05;;;;;;;10.57;6.03;;;;;;;;;;5034251;28;20018;-80
2021/01/23 03:32:32;;;;;;;10.40;6.22;;;;;;;;;;5032711;28;20028;-79
2021/01/23 03:34:58;;;;;;;10.75;6.45;;;;;;;;;;5044147;28;20602;-80
2021/01/23 03:37:26;;;;;;;11.65;6.28;;;;;;;;;;5054009;28;20637;-80
2021/01/23 03:39:52;;;;;;;12.20;6.53;;;;;;;;;;5053723;28;20029;-81
2021/01/23 03:42:18;;;;;;;10.93;6.15;;;;;;;;;;5053838;28;20021;-80
2021/01/23 03:44:45;;;;;;;13.43;6.05;;;;;;;;;;5053768;28;20025;-75
2021/01/23 03:47:11;;;;;;;10.20;6.28;;;;;;;;;;5053483;28;20067;-80
2021/01/23 03:49:37;;;;;;;10.63;6.22;;;;;;;;;;5052256;28;20031;-79
2021/01/23 03:52:04;;;;;;;11.18;5.80;;;;;;;;;;5046898;28;20441;-80
2021/01/23 03:54:30;;;;;;;12.13;6.75;;;;;;;;;;5049765;28;20033;-80
2021/01/23 03:56:56;;;;;;;10.70;6.10;;;;;;;;;;5053561;28;20021;-78
2021/01/23 03:59:22;;;;;;;11.35;6.65;;;;;;;;;;5053627;28;20025;-80
2021/01/23 04:01:48;;;;;;;10.52;6.75;;;;;;;;;;5053347;28;20032;-78
2021/01/23 04:04:14;;;;;;;11.13;6.57;;;;;;;;;;5053482;28;20025;-79
2021/01/23 04:06:40;;;;;;;12.60;6.38;;;;;;;;;;5053543;28;20025;-80
2021/01/23 04:09:06;;;;;;;13.18;7.03;;;;;;;;;;5051234;28;20028;-79
2021/01/23 04:11:32;;;;;;;14.20;7.43;;;;;;;;;;5053181;28;20032;-76
2021/01/23 04:13:58;;;;;;;11.73;7.03;;;;;;;;;;5053212;28;20078;-77
2021/01/23 04:16:24;;;;;;;12.75;6.65;;;;;;;;;;5053113;28;20079;-78
2021/01/23 04:18:50;;;;;;;11.85;7.13;;;;;;;;;;5051722;28;20024;-78
2021/01/23 04:21:16;;;;;;;14.38;7.28;;;;;;;;;;5053014;28;20021;-80
2021/01/23 04:23:44;;;;;;;12.13;6.88;;;;;;;;;;5052918;28;20017;-80
2021/01/23 04:26:11;;;;;;;12.85;7.30;;;;;;;;;;5052115;28;20039;-79
2021/01/23 04:28:37;;;;;;;10.55;7.15;;;;;;;;;;5052963;28;20032;-80
2021/01/23 04:31:03;;;;;;;13.18;7.35;;;;;;;;;;5051563;28;20021;-79
2021/01/23 04:33:29;;;;;;;11.82;6.90;;;;;;;;;;5047782;28;20021;-80
2021/01/23 04:35:55;;;;;;;12.20;7.20;;;;;;;;;;5032656;28;20029;-79
2021/01/23 04:38:21;;;;;;;12.18;7.30;;;;;;;;;;5032750;28;20026;-76
2021/01/23 04:40:47;;;;;;;12.77;7.10;;;;;;;;;;5031399;28;20041;-80
2021/01/23 04:43:13;;;;;;;12.88;6.75;;;;;;;;;;5033327;28;20078;-79
2021/01/23 04:45:40;;;;;;;10.80;6.95;;;;;;;;;;5032303;28;20484;-80
2021/01/23 04:48:06;;;;;;;12.02;6.85;;;;;;;;;;5032851;28;20121;-80
2021/01/23 04:50:32;;;;;;;11.05;6.78;;;;;;;;;;5031559;28;20029;-80
2021/01/23 04:52:58;;;;;;;12.05;6.90;;;;;;;;;;5032512;28;20021;-80
2021/01/23 04:55:24;;;;;;;14.43;7.50;;;;;;;;;;5031228;28;20107;-77
2021/01/23 04:57:51;;;;;;;13.85;7.75;;;;;;;;;;5031170;28;20022;-79
2021/01/23 05:00:17;;;;;;;14.63;7.30;;;;;;;;;;5032627;28;20029;-79
2021/01/23 05:02:43;;;;;;;12.13;6.53;;;;;;;;;;5032363;28;20052;-79
2021/01/23 05:05:09;;;;;;;13.32;6.85;;;;;;;;;;5031143;28;20038;-76
2021/01/23 05:07:37;;;;;;;12.13;6.78;;;;;;;;;;5032160;28;20025;-77
2021/01/23 05:10:13;;;;;;;11.95;6.60;;;;;;;;;;5032243;28;20105;-79
2021/01/23 05:12:46;;;;;;;14.63;6.95;;;;;;;;;;5030885;28;20021;-80
2021/01/23 05:15:23;;;;;;;12.63;7.57;;;;;;;;;;5032159;28;20036;-76
2021/01/23 05:18:04;;;;;;;11.40;6.95;;;;;;;;;;5031261;28;20062;-79
2021/01/23 05:20:35;;;;;;;10.82;6.75;;;;;;;;;;5031940;28;20018;-79
2021/01/23 05:23:02;;;;;;;13.15;7.38;;;;;;;;;;5031924;28;20064;-79
2021/01/23 05:25:32;;;;;;;12.38;7.05;;;;;;;;;;5031857;28;20013;-79
2021/01/23 05:27:59;;;;;;;11.18;6.95;;;;;;;;;;5032063;28;20022;-79
2021/01/23 05:30:25;;;;;;;9.65;6.30;;;;;;;;;;5031978;28;20026;-80
2021/01/23 05:33:11;;;;;;;13.65;6.95;;;;;;;;;;5040324;28;20400;-79
2021/01/23 05:35:38;;;;;;;9.68;6.35;;;;;;;;;;5032036;28;20087;-79
2021/01/23 05:38:19;;;;;;;12.88;7.57;;;;;;;;;;5031929;28;20026;-79
2021/01/23 05:40:45;;;;;;;10.00;6.60;;;;;;;;;;5031752;28;20025;-78
2021/01/23 05:43:11;;;;;;;10.30;6.43;;;;;;;;;;5030521;28;20389;-80
2021/01/23 05:45:46;;;;;;;12.88;7.30;;;;;;;;;;5031241;28;20080;-79
2021/01/23 05:48:12;;;;;;;11.75;7.13;;;;;;;;;;5031479;28;20392;-78
2021/01/23 05:50:38;;;;;;;11.50;7.32;;;;;;;;;;5030660;28;20018;-77
2021/01/23 05:53:04;;;;;;;11.70;7.20;;;;;;;;;;5045480;28;20025;-79
2021/01/23 05:55:30;;;;;;;12.10;7.00;;;;;;;;;;5051197;28;20075;-79
2021/01/23 05:57:57;;;;;;;11.82;6.90;;;;;;;;;;5051325;28;20472;-79
2021/01/23 06:00:23;;;;;;;10.65;6.47;;;;;;;;;;5051124;28;20028;-79
2021/01/23 06:02:50;;;;;;;14.25;7.53;;;;;;;;;;5050972;28;20049;-77
2021/01/23 06:05:16;;;;;;;12.52;6.88;;;;;;;;;;5051215;28;20021;-75
2021/01/23 06:07:42;;;;;;;10.73;6.88;;;;;;;;;;5047370;28;20605;-80
2021/01/23 06:10:23;;;;;;;12.82;7.07;;;;;;;;;;5030287;28;20492;-79
2021/01/23 06:12:49;;;;;;;13.55;7.68;;;;;;;;;;5030657;28;20032;-77
2021/01/23 06:15:34;;;;;;;11.82;6.90;;;;;;;;;;5031277;28;20120;-79
2021/01/23 06:18:01;;;;;;;12.13;7.18;;;;;;;;;;5029779;28;20044;-79
2021/01/23 06:20:42;;;;;;;12.13;6.82;;;;;;;;;;5031219;28;20017;-80
2021/01/23 06:23:08;;;;;;;10.50;6.63;;;;;;;;;;5030020;28;20032;-79
2021/01/23 06:25:49;;;;;;;11.27;7.10;;;;;;;;;;5030630;28;20037;-77
2021/01/23 06:28:35;;;;;;;10.05;6.55;;;;;;;;;;5049867;28;20028;-80
2021/01/23 06:31:21;;;;;;;12.73;8.00;;;;;;;;;;5050855;28;20032;-78
2021/01/23 06:33:47;;;;;;;11.57;6.88;;;;;;;;;;5031878;28;20029;-79
2021/01/23 06:36:13;;;;;;;10.65;6.97;;;;;;;;;;5031144;28;20040;-80
2021/01/23 06:38:39;;;;;;;11.73;6.47;;;;;;;;;;5031194;28;20108;-80
2021/01/23 06:41:24;;;;;;;13.15;7.38;;;;;;;;;;5031012;28;20053;-80
2021/01/23 06:44:08;;;;;;;12.90;6.15;;;;;;;;;;5041637;28;20500;-78
2021/01/23 06:46:39;;;;;;;9.77;6.07;;;;;;;;;;5049317;28;20052;-80
2021/01/23 06:49:06;;;;;;;10.88;6.07;;;;;;;;;;5043797;28;20057;-79
2021/01/23 06:51:32;;;;;;;15.80;6.28;;;;;;;;;;5032437;28;20049;-77
2021/01/23 06:54:17;;;;;;;13.27;7.03;;;;;;;;;;5050681;28;20059;-74
2021/01/23 06:56:44;;;;;;;13.65;6.70;;;;;;;;;;5049765;28;20029;-79
2021/01/23 06:59:27;;;;;;;11.40;6.47;;;;;;;;;;5044430;28;20014;-80
2021/01/23 07:01:57;;;;;;;24.83;6.47;;;;;;;;;;5041153;28;20497;-78
2021/01/23 07:04:23;;;;;;;13.68;5.72;;;;;;;;;;5035162;28;20025;-77
2021/01/23 07:06:49;;;;;;;23.17;6.25;;;;;;;;;;5050474;28;20029;-78
2021/01/23 07:09:15;;;;;;;11.68;5.18;;;;;;;;;;5050379;28;20031;-80
2021/01/23 07:11:41;;;;;;;16.63;5.82;;;;;;;;;;5050446;28;20536;-78
2021/01/23 07:14:07;;;;;;;13.88;5.70;;;;;;;;;;5048955;28;20586;-79
2021/01/23 07:16:38;;;;;;;12.13;6.22;;;;;;;;;;5050619;28;20018;-78
2021/01/23 07:19:08;;;;;;;9.90;5.35;;;;;;;;;;5050441;28;20013;-78
2021/01/23 07:21:36;;;;;;;10.95;5.70;;;;;;;;;;5048945;28;20534;-75
2021/01/23 07:24:02;;;;;;;11.10;5.75;;;;;;;;;;5052714;28;20025;-73
2021/01/23 07:26:31;;;;;;;14.68;6.13;;;;;;;;;;5053948;28;20516;-75
2021/01/23 07:28:57;;;;;;;17.10;6.13;;;;;;;;;;5053622;28;20040;-78
2021/01/23 07:31:28;;;;;;;10.80;5.95;;;;;;;;;;5049024;28;20037;-76
2021/01/23 07:33:54;;;;;;;9.13;5.63;;;;;;;;;;5051984;28;20044;-77
2021/01/23 07:36:47;;;;;;;10.52;5.38;;;;;;;;;;5052465;28;20079;-79
2021/01/23 07:39:13;;;;;;;13.02;5.43;;;;;;;;;;5050458;28;20033;-79
2021/01/23 07:41:41;;;;;;;13.05;5.40;;;;;;;;;;5053519;28;20028;-78
2021/01/23 07:44:09;;;;;;;13.93;5.70;;;;;;;;;;5053542;28;20103;-78
2021/01/23 07:46:37;;;;;;;10.57;5.30;;;;;;;;;;5053421;28;20048;-73
2021/01/23 07:49:03;;;;;;;10.70;6.00;;;;;;;;;;5050069;28;20697;-74
2021/01/23 07:51:31;;;;;;;11.75;6.00;;;;;;;;;;5048900;28;20503;-79
2021/01/23 07:54:04;;;;;;;10.85;5.85;;;;;;;;;;5053107;28;20496;-79
2021/01/23 07:56:30;;;;;;;10.52;5.57;;;;;;;;;;5049455;28;20040;-72
2021/01/23 07:58:56;;;;;;;12.60;5.72;;;;;;;;;;5053429;28;20017;-74
2021/01/23 08:01:23;;;;;;;14.30;6.30;;;;;;;;;;5052628;28;20016;-74
2021/01/23 08:03:49;;;;;;;10.70;5.28;;;;;;;;;;5048973;28;20079;-77
2021/01/23 08:06:25;;;;;;;13.05;5.38;;;;;;;;;;5052833;28;20009;-72
2021/01/23 08:08:51;;;;;;;12.45;5.60;;;;;;;;;;5051663;28;20377;-72
2021/01/23 08:11:37;;;;;;;8.10;5.22;;;;;;;;;;5054874;28;20380;-77
2021/01/23 08:14:07;;;;;;;8.27;5.28;;;;;;;;;;5041648;28;20033;-76
2021/01/23 08:16:33;;;;;;;8.52;5.32;;;;;;;;;;5053154;28;20037;-77
2021/01/23 08:19:05;;;;;;;14.52;5.95;;;;;;;;;;5040665;28;20024;-77
2021/01/23 08:21:31;;;;;;;10.98;5.35;;;;;;;;;;5031752;28;20028;-77
2021/01/23 08:23:57;;;;;;;11.52;5.72;;;;;;;;;;5033641;28;20013;-76
2021/01/23 08:26:36;;;;;;;10.13;5.43;;;;;;;;;;5031684;28;20033;-78
2021/01/23 08:29:02;;;;;;;10.75;5.72;;;;;;;;;;5033162;28;20033;-77
2021/01/23 08:31:29;;;;;;;11.68;5.35;;;;;;;;;;5032857;28;20479;-79
2021/01/23 08:33:55;;;;;;;9.10;5.13;;;;;;;;;;5051052;28;20652;-77
2021/01/23 08:36:28;;;;;;;9.65;5.82;;;;;;;;;;5050807;28;20028;-78
2021/01/23 08:39:13;;;;;;;9.85;4.97;;;;;;;;;;5052649;28;20468;-78
2021/01/23 08:41:39;;;;;;;10.15;5.30;;;;;;;;;;5041748;28;20026;-78
2021/01/23 08:44:05;;;;;;;8.63;4.72;;;;;;;;;;5030721;28;20492;-77
2021/01/23 08:46:32;;;;;;;12.55;4.85;;;;;;;;;;5031875;28;20084;-75
2021/01/23 08:48:59;;;;;;;7.93;4.72;;;;;;;;;;5032744;28;20432;-78
2021/01/23 08:51:25;;;;;;;10.57;4.70;;;;;;;;;;5032548;28;20044;-77
2021/01/23 08:53:51;;;;;;;8.40;5.18;;;;;;;;;;5031003;28;20554;-75
2021/01/23 08:56:17;;;;;;;14.68;4.88;;;;;;;;;;5032344;28;20025;-76
2021/01/23 08:58:43;;;;;;;8.98;5.05;;;;;;;;;;5039562;28;20421;-74
2021/01/23 09:01:10;;;;;;;10.95;5.38;;;;;;;;;;5050724;28;20079;-74
2021/01/23 09:03:38;;;;;;;10.80;5.07;;;;;;;;;;5049631;28;20517;-75
2021/01/23 09:06:04;;;;;;;9.20;5.05;;;;;;;;;;5046153;28;20475;-78
2021/01/23 09:08:30;;;;;;;14.25;5.03;;;;;;;;;;5034293;28;20053;-76
2021/01/23 09:10:56;;;;;;;9.50;5.13;;;;;;;;;;5032200;28;20021;-76
2021/01/23 09:13:22;;;;;;;14.57;4.63;;;;;;;;;;5066419;28;20025;-77
2021/01/23 09:15:48;;;;;;;13.48;5.32;;;;;;;;;;5036519;28;20072;-75
2021/01/23 09:18:14;;;;;;;11.05;5.05;;;;;;;;;;5037397;28;20025;-79
2021/01/23 09:20:40;;;;;;;11.15;5.28;;;;;;;;;;5031812;28;20112;-76
2021/01/23 09:23:06;;;;;;;11.73;5.72;;;;;;;;;;5031986;28;20171;-74
2021/01/23 09:25:33;;;;;;;15.80;5.43;;;;;;;;;;5049192;28;20021;-75
2021/01/23 09:27:59;;;;;;;11.60;5.63;;;;;;;;;;5048718;28;20044;-74
2021/01/23 09:30:25;;;;;;;9.98;5.40;;;;;;;;;;5030435;28;20041;-76
2021/01/23 09:32:51;;;;;;;9.20;5.43;;;;;;;;;;5032012;28;20030;-75
2021/01/23 09:35:19;;;;;;;12.70;5.07;;;;;;;;;;5039747;28;20032;-75
2021/01/23 09:37:45;;;;;;;11.90;4.72;;;;;;;;;;5048260;28;20020;-74
2021/01/23 09:40:12;;;;;;;13.65;4.72;;;;;;;;;;5074067;28;20033;-75
2021/01/23 09:42:38;;;;;;;9.60;4.72;;;;;;;;;;5050259;28;20029;-75
2021/01/23 09:45:05;;;;;;;13.75;5.25;;;;;;;;;;5049943;28;20644;-75
2021/01/23 09:47:31;;;;;;;11.15;4.63;;;;;;;;;;5050562;28;20090;-75
2021/01/23 09:49:57;;;;;;;16.20;6.38;;;;;;;;;;5050102;28;20029;-75
2021/01/23 09:52:23;;;;;;;8.65;5.18;;;;;;;;;;5050876;28;20024;-74
2021/01/23 09:54:49;;;;;;;13.52;5.63;;;;;;;;;;5050082;28;20681;-74
2021/01/23 09:57:15;;;;;;;14.50;5.70;;;;;;;;;;5051011;28;20614;-72
2021/01/23 09:59:41;;;;;;;12.13;6.50;;;;;;;;;;5042177;28;20436;-77
2021/01/23 10:02:07;;;;;;;12.00;5.22;;;;;;;;;;5037283;28;20076;-75
2021/01/23 10:04:33;;;;;;;15.13;5.78;;;;;;;;;;5051284;28;20401;-79
2021/01/23 10:06:59;;;;;;;15.15;6.28;;;;;;;;;;5031755;28;20021;-75
2021/01/23 10:09:26;;;;;;;14.13;5.68;;;;;;;;;;5032588;28;20377;-78
2021/01/23 10:11:52;;;;;;;10.52;6.28;;;;;;;;;;5031658;28;20025;-77
2021/01/23 10:14:18;;;;;;;10.18;5.78;;;;;;;;;;5031036;28;20034;-75
2021/01/23 10:16:44;;;;;;;12.90;6.07;;;;;;;;;;5031207;28;20036;-76
2021/01/23 10:19:10;;;;;;;8.38;5.03;;;;;;;;;;5029647;28;20022;-76
2021/01/23 10:21:37;;;;;;;9.05;4.28;;;;;;;;;;5030978;28;20031;-77
2021/01/23 10:24:03;;;;;;;10.38;4.57;;;;;;;;;;5043967;28;20032;-77
2021/01/23 10:26:29;;;;;;;9.10;4.20;;;;;;;;;;5033091;28;20033;-77
2021/01/23 10:28:56;;;;;;;8.48;4.45;;;;;;;;;;5031862;28;20118;-76
2021/01/23 10:31:22;;;;;;;8.40;5.13;;;;;;;;;;5049433;28;20394;-77
2021/01/23 10:33:48;;;;;;;11.82;6.95;;;;;;;;;;5030637;28;20045;-72
2021/01/23 10:36:14;;;;;;;38.05;7.13;;;;;;;;;;5045102;28;20132;-73
2021/01/23 10:38:40;;;;;;;24.17;6.70;;;;;;;;;;5050656;28;20025;-75
2021/01/23 10:41:06;;;;;;;31.42;8.10;;;;;;;;;;5050183;28;20017;-75
2021/01/23 10:43:33;;;;;;;21.73;6.88;;;;;;;;;;5051059;28;20014;-80
2021/01/23 10:45:59;;;;;;;23.80;6.85;;;;;;;;;;5045309;28;20044;-77
2021/01/23 10:48:25;;;;;;;18.15;7.18;;;;;;;;;;5029574;28;20025;-77
2021/01/23 10:50:51;;;;;;;20.85;7.15;;;;;;;;;;5039629;28;20024;-77
2021/01/23 10:53:17;;;;;;;21.02;7.63;;;;;;;;;;5049518;28;20116;-75
2021/01/23 10:55:44;;;;;;;20.17;6.25;;;;;;;;;;5044126;28;20040;-78
2021/01/23 10:58:10;;;;;;;19.23;7.07;;;;;;;;;;5033623;28;20030;-77
2021/01/23 11:00:36;;;;;;;25.05;7.35;;;;;;;;;;5042010;28;20028;-81
2021/01/23 11:03:03;;;;;;;13.90;5.68;;;;;;;;;;5051707;28;20025;-79
2021/01/23 11:05:29;;;;;;;18.08;6.70;;;;;;;;;;5054932;28;20029;-82
2021/01/23 11:07:55;;;;;;;17.55;6.47;;;;;;;;;;5053728;28;20025;-86
2021/01/23 11:10:21;;;;;;;16.02;5.93;;;;;;;;;;5050033;28;20022;-78
2021/01/23 11:12:47;;;;;;;18.63;6.57;;;;;;;;;;5034174;28;20022;-73
2021/01/23 11:15:14;;;;;;;13.50;5.53;;;;;;;;;;5048985;28;20394;-72
2021/01/23 11:17:40;;;;;;;16.88;6.10;;;;;;;;;;5033134;28;20105;-73
2021/01/23 11:20:07;;;;;;;14.18;6.32;;;;;;;;;;5053501;28;20020;-73
2021/01/23 11:22:33;;;;;;;15.77;6.78;;;;;;;;;;5054303;28;20025;-73
2021/01/23 11:24:59;;;;;;;14.82;6.07;;;;;;;;;;5053364;28;20505;-73
2021/01/23 11:27:25;;;;;;;12.02;5.05;;;;;;;;;;5054131;28;20074;-73
2021/01/23 11:29:51;;;;;;;12.88;4.35;;;;;;;;;;5052624;28;20031;-74
2021/01/23 11:32:17;;;;;;;13.73;5.25;;;;;;;;;;5047488;28;20017;-73
2021/01/23 11:34:43;;;;;;;15.15;4.88;;;;;;;;;;5052486;28;20542;-75
2021/01/23 11:37:09;;;;;;;12.05;4.38;;;;;;;;;;5054041;28;20028;-72
2021/01/23 11:39:36;;;;;;;14.85;4.53;;;;;;;;;;5054014;28;20021;-74
2021/01/23 11:42:03;;;;;;;11.68;4.28;;;;;;;;;;5053743;28;20388;-73
2021/01/23 11:44:29;;;;;;;12.10;4.53;;;;;;;;;;5053998;28;20017;-73
2021/01/23 11:46:55;;;;;;;12.75;4.50;;;;;;;;;;5052381;28;20045;-74
2021/01/23 11:49:21;;;;;;;10.77;4.40;;;;;;;;;;5051503;28;20033;-73
2021/01/23 11:51:47;;;;;;;8.38;4.43;;;;;;;;;;5053546;28;20623;-75
2021/01/23 11:54:13;;;;;;;11.57;4.50;;;;;;;;;;5053557;28;20033;-74
2021/01/23 11:56:39;;;;;;;10.13;3.90;;;;;;;;;;5052356;28;20021;-74
2021/01/23 11:59:05;;;;;;;8.68;4.15;;;;;;;;;;5052308;28;20031;-74
2021/01/23 12:01:31;;;;;;;12.02;4.00;;;;;;;;;;5052132;28;20024;-74
2021/01/23 12:03:58;;;;;;;9.65;3.75;;;;;;;;;;5051883;28;20427;-73
2021/01/23 12:06:24;;;;;;;9.00;4.13;;;;;;;;;;5037254;28;20030;-73
2021/01/23 12:08:50;;;;;;;11.98;4.25;;;;;;;;;;5051674;28;20036;-74
2021/01/23 12:11:17;;;;;;;7.97;4.35;;;;;;;;;;5052594;28;20025;-73
2021/01/23 12:13:43;;;;;;;13.13;4.60;;;;;;;;;;5053232;28;20017;-73
2021/01/23 12:16:09;;;;;;;11.25;5.45;;;;;;;;;;5053302;28;20608;-73
2021/01/23 12:18:35;;;;;;;12.18;5.70;;;;;;;;;;5051804;28;20120;-73
2021/01/23 12:21:01;;;;;;;11.15;5.60;;;;;;;;;;5051881;28;20117;-74
2021/01/23 12:23:27;;;;;;;11.02;5.68;;;;;;;;;;5037209;28;20026;-75
2021/01/23 12:25:53;;;;;;;10.20;5.10;;;;;;;;;;5033129;28;20026;-74
2021/01/23 12:28:20;;;;;;;8.93;5.00;;;;;;;;;;5033066;28;20029;-74
2021/01/23 12:30:46;;;;;;;8.52;4.68;;;;;;;;;;5033092;28;20357;-73
2021/01/23 12:33:12;;;;;;;9.52;4.65;;;;;;;;;;5033007;28;20025;-72
2021/01/23 12:35:38;;;;;;;10.38;5.05;;;;;;;;;;5032699;28;20065;-75
2021/01/23 12:38:04;;;;;;;10.30;4.70;;;;;;;;;;5032878;28;20193;-73
2021/01/23 12:40:30;;;;;;;9.50;4.10;;;;;;;;;;5033487;28;20385;-74
2021/01/23 12:42:56;;;;;;;8.80;4.65;;;;;;;;;;5032984;28;20033;-73
2021/01/23 12:45:22;;;;;;;13.68;4.20;;;;;;;;;;5032667;28;20045;-73
2021/01/23 12:47:48;;;;;;;9.75;4.30;;;;;;;;;;5032439;28;20413;-73
2021/01/23 12:50:15;;;;;;;10.95;4.20;;;;;;;;;;5032289;28;20044;-73
2021/01/23 12:52:41;;;;;;;9.57;4.65;;;;;;;;;;5032543;28;20465;-73
2021/01/23 12:55:08;;;;;;;8.05;3.88;;;;;;;;;;5032424;28;20025;-74
2021/01/23 12:57:40;;;;;;;9.38;4.22;;;;;;;;;;5031677;28;20502;-73
2021/01/23 13:00:07;;;;;;;11.45;4.30;;;;;;;;;;5031087;28;20052;-75
2021/01/23 13:02:33;;;;;;;8.45;4.30;;;;;;;;;;5032516;28;20022;-73
2021/01/23 13:04:59;;;;;;;9.27;3.97;;;;;;;;;;5035579;28;20036;-74
2021/01/23 13:07:25;;;;;;;9.88;4.35;;;;;;;;;;5052236;28;20025;-73
2021/01/23 13:09:52;;;;;;;8.63;4.32;;;;;;;;;;5050980;28;20071;-72
2021/01/23 13:12:19;;;;;;;8.38;3.80;;;;;;;;;;5052052;28;20521;-73
2021/01/23 13:14:45;;;;;;;9.55;4.05;;;;;;;;;;5032485;28;20072;-73
2021/01/23 13:17:11;;;;;;;9.27;4.57;;;;;;;;;;5031049;28;20028;-72
2021/01/23 13:19:38;;;;;;;11.55;4.43;;;;;;;;;;5030622;28;20029;-76
2021/01/23 13:22:04;;;;;;;30.38;6.25;;;;;;;;;;5038342;28;20739;-74
2021/01/23 13:24:31;;;;;;;16.38;5.22;;;;;;;;;;5052726;28;20362;-74
2021/01/23 13:26:57;;;;;;;17.33;5.43;;;;;;;;;;5066559;28;20543;-76
2021/01/23 13:29:23;;;;;;;28.30;5.50;;;;;;;;;;5060429;28;20075;-77
2021/01/23 13:31:49;;;;;;;32.97;5.53;;;;;;;;;;5060980;28;20112;-85
2021/01/23 13:34:15;;;;;;;19.98;3.97;;;;;;;;;;5066334;28;20063;-75
2021/01/23 13:36:41;;;;;;;20.98;4.63;;;;;;;;;;5054929;28;20062;-85
2021/01/23 13:39:09;;;;;;;14.73;4.72;;;;;;;;;;5065145;28;20028;-79
2021/01/23 13:41:35;;;;;;;14.85;4.53;;;;;;;;;;5053975;28;20024;-75
2021/01/23 13:44:02;;;;;;;20.10;4.40;;;;;;;;;;5035642;28;20438;-75
2021/01/23 13:46:28;;;;;;;16.90;4.75;;;;;;;;;;5051059;28;20044;-79
2021/01/23 13:48:54;;;;;;;17.52;4.70;;;;;;;;;;5050430;28;20104;-78
2021/01/23 13:51:20;;;;;;;11.93;4.15;;;;;;;;;;5051232;28;20101;-77
2021/01/23 13:53:47;;;;;;;14.57;3.90;;;;;;;;;;5053674;28;20013;-77
2021/01/23 13:56:13;;;;;;;17.73;4.47;;;;;;;;;;5050375;28;20361;-76
2021/01/23 13:58:39;;;;;;;12.23;3.80;;;;;;;;;;5060509;28;20087;-76
2021/01/23 14:01:06;;;;;;;18.70;4.35;;;;;;;;;;5063839;28;20445;-77
2021/01/23 14:03:32;;;;;;;17.58;4.40;;;;;;;;;;5053750;28;20024;-77
2021/01/23 14:05:58;;;;;;;35.00;4.45;;;;;;;;;;5047505;28;20059;-77
2021/01/23 14:08:24;;;;;;;13.18;3.88;;;;;;;;;;5061095;28;20079;-78
2021/01/23 14:10:53;;;;;;;15.38;4.07;;;;;;;;;;5061596;28;20021;-76
2021/01/23 14:13:19;;;;;;;10.85;4.15;;;;;;;;;;5067114;28;20028;-77
2021/01/23 14:15:45;;;;;;;14.93;4.07;;;;;;;;;;5053919;28;20632;-77
2021/01/23 14:18:11;;;;;;;9.70;3.72;;;;;;;;;;5062597;28;20044;-77
2021/01/23 14:20:38;;;;;;;9.73;4.30;;;;;;;;;;5059534;28;20064;-76
2021/01/23 14:23:04;;;;;;;9.48;4.00;;;;;;;;;;5059162;28;20459;-76
2021/01/23 14:25:30;;;;;;;11.00;3.88;;;;;;;;;;5044937;28;20056;-79
2021/01/23 14:27:56;;;;;;;10.30;3.45;;;;;;;;;;5065216;28;20403;-77
2021/01/23 14:30:22;;;;;;;15.73;4.07;;;;;;;;;;5057606;28;20063;-76
2021/01/23 14:32:49;;;;;;;22.67;4.47;;;;;;;;;;5058316;28;20476;-76